sensor_id;sensor_type;location;lat;lon;timestamp;temperature;humidity
2477;DHT22;1249;51.270;6.756;2023-05-19T00:01:11;19.00;75.90
2477;DHT22;1249;51.270;6.756;2023-05-19T00:03:48;19.00;76.00
2477;DHT22;1249;51.270;6.756;2023-05-19T00:06:20;19.00;76.10
2477;DHT22;1249;51.270;6.756;2023-05-19T00:08:46;19.00;76.20
2477;DHT22;1249;51.270;6.756;2023-05-19T00:11:11;19.00;76.30
2477;DHT22;1249;51.270;6.756;2023-05-19T00:13:37;19.00;76.50
2477;DHT22;1249;51.270;6.756;2023-05-19T00:16:03;18.90;76.40
2477;DHT22;1249;51.270;6.756;2023-05-19T00:18:30;18.90;76.50
2477;DHT22;1249;51.270;6.756;2023-05-19T00:20:55;18.80;76.70
2477;DHT22;1249;51.270;6.756;2023-05-19T00:23:21;18.90;76.80
2477;DHT22;1249;51.270;6.756;2023-05-19T00:25:46;18.80;76.90
2477;DHT22;1249;51.270;6.756;2023-05-19T00:28:12;18.80;77.00
2477;DHT22;1249;51.270;6.756;2023-05-19T00:30:37;18.80;77.10
2477;DHT22;1249;51.270;6.756;2023-05-19T00:33:03;18.80;77.20
2477;DHT22;1249;51.270;6.756;2023-05-19T00:35:28;18.80;77.20
2477;DHT22;1249;51.270;6.756;2023-05-19T00:37:54;18.80;77.40
2477;DHT22;1249;51.270;6.756;2023-05-19T00:40:20;18.80;77.50
2477;DHT22;1249;51.270;6.756;2023-05-19T00:42:46;18.80;77.60
2477;DHT22;1249;51.270;6.756;2023-05-19T00:45:12;18.70;77.50
2477;DHT22;1249;51.270;6.756;2023-05-19T00:47:38;18.70;77.60
2477;DHT22;1249;51.270;6.756;2023-05-19T00:50:04;18.70;77.80
2477;DHT22;1249;51.270;6.756;2023-05-19T00:52:30;18.70;77.90
2477;DHT22;1249;51.270;6.756;2023-05-19T00:54:55;18.70;78.00
2477;DHT22;1249;51.270;6.756;2023-05-19T00:57:21;18.70;78.10
2477;DHT22;1249;51.270;6.756;2023-05-19T00:59:47;18.60;78.20
2477;DHT22;1249;51.270;6.756;2023-05-19T01:02:13;18.70;78.50
2477;DHT22;1249;51.270;6.756;2023-05-19T01:04:39;18.60;78.40
2477;DHT22;1249;51.270;6.756;2023-05-19T01:07:06;18.60;78.60
2477;DHT22;1249;51.270;6.756;2023-05-19T01:09:31;18.60;78.70
2477;DHT22;1249;51.270;6.756;2023-05-19T01:11:58;18.50;78.80
2477;DHT22;1249;51.270;6.756;2023-05-19T01:14:24;18.60;78.90
2477;DHT22;1249;51.270;6.756;2023-05-19T01:16:57;18.50;78.80
2477;DHT22;1249;51.270;6.756;2023-05-19T01:30:43;18.50;79.60
2477;DHT22;1249;51.270;6.756;2023-05-19T01:33:11;18.40;79.60
2477;DHT22;1249;51.270;6.756;2023-05-19T01:35:39;18.40;79.70
2477;DHT22;1249;51.270;6.756;2023-05-19T01:38:08;18.40;79.80
2477;DHT22;1249;51.270;6.756;2023-05-19T01:40:34;18.30;79.90
2477;DHT22;1249;51.270;6.756;2023-05-19T01:43:01;18.40;80.10
2477;DHT22;1249;51.270;6.756;2023-05-19T01:45:28;18.30;80.00
2477;DHT22;1249;51.270;6.756;2023-05-19T01:47:57;18.30;80.20
2477;DHT22;1249;51.270;6.756;2023-05-19T01:50:23;18.30;80.20
2477;DHT22;1249;51.270;6.756;2023-05-19T01:52:50;18.30;80.60
2477;DHT22;1249;51.270;6.756;2023-05-19T01:55:15;18.30;80.90
2477;DHT22;1249;51.270;6.756;2023-05-19T01:57:53;18.30;80.50
2477;DHT22;1249;51.270;6.756;2023-05-19T02:00:39;18.30;80.70
2477;DHT22;1249;51.270;6.756;2023-05-19T02:03:40;18.30;81.00
2477;DHT22;1249;51.270;6.756;2023-05-19T02:06:43;18.20;81.10
2477;DHT22;1249;51.270;6.756;2023-05-19T02:14:48;18.10;81.30
2477;DHT22;1249;51.270;6.756;2023-05-19T02:17:15;18.10;81.50
2477;DHT22;1249;51.270;6.756;2023-05-19T02:19:42;18.10;81.50
2477;DHT22;1249;51.270;6.756;2023-05-19T02:22:08;18.00;81.60
2477;DHT22;1249;51.270;6.756;2023-05-19T02:24:34;18.00;81.70
2477;DHT22;1249;51.270;6.756;2023-05-19T02:27:01;18.00;81.90
2477;DHT22;1249;51.270;6.756;2023-05-19T02:29:26;18.00;82.00
2477;DHT22;1249;51.270;6.756;2023-05-19T02:31:52;18.00;82.00
2477;DHT22;1249;51.270;6.756;2023-05-19T02:34:18;18.00;82.00
2477;DHT22;1249;51.270;6.756;2023-05-19T02:36:43;18.00;82.20
2477;DHT22;1249;51.270;6.756;2023-05-19T02:39:09;17.90;82.30
2477;DHT22;1249;51.270;6.756;2023-05-19T02:41:36;17.90;82.50
2477;DHT22;1249;51.270;6.756;2023-05-19T02:44:01;17.80;82.50
2477;DHT22;1249;51.270;6.756;2023-05-19T02:46:27;17.90;83.00
2477;DHT22;1249;51.270;6.756;2023-05-19T02:48:52;17.80;83.00
2477;DHT22;1249;51.270;6.756;2023-05-19T02:51:18;17.80;83.10
2477;DHT22;1249;51.270;6.756;2023-05-19T02:53:43;17.80;83.00
2477;DHT22;1249;51.270;6.756;2023-05-19T02:56:09;17.80;83.20
2477;DHT22;1249;51.270;6.756;2023-05-19T02:58:35;17.90;83.50
2477;DHT22;1249;51.270;6.756;2023-05-19T03:01:00;17.80;83.50
2477;DHT22;1249;51.270;6.756;2023-05-19T03:03:26;17.80;83.70
2477;DHT22;1249;51.270;6.756;2023-05-19T03:05:52;17.80;83.90
2477;DHT22;1249;51.270;6.756;2023-05-19T03:08:18;17.80;84.10
2477;DHT22;1249;51.270;6.756;2023-05-19T03:10:47;17.70;84.20
2477;DHT22;1249;51.270;6.756;2023-05-19T03:13:13;17.70;84.30
2477;DHT22;1249;51.270;6.756;2023-05-19T03:15:38;17.70;84.30
2477;DHT22;1249;51.270;6.756;2023-05-19T03:18:04;17.70;84.70
2477;DHT22;1249;51.270;6.756;2023-05-19T03:20:31;17.70;84.90
2477;DHT22;1249;51.270;6.756;2023-05-19T03:22:56;17.70;84.90
2477;DHT22;1249;51.270;6.756;2023-05-19T03:25:22;17.70;85.00
2477;DHT22;1249;51.270;6.756;2023-05-19T03:27:48;17.60;85.10
2477;DHT22;1249;51.270;6.756;2023-05-19T03:30:14;17.60;85.20
2477;DHT22;1249;51.270;6.756;2023-05-19T03:32:40;17.70;85.50
2477;DHT22;1249;51.270;6.756;2023-05-19T03:35:05;17.60;85.50
2477;DHT22;1249;51.270;6.756;2023-05-19T03:37:31;17.60;85.70
2477;DHT22;1249;51.270;6.756;2023-05-19T03:39:58;17.60;85.80
2477;DHT22;1249;51.270;6.756;2023-05-19T03:42:23;17.60;85.80
2477;DHT22;1249;51.270;6.756;2023-05-19T03:44:50;17.60;86.10
2477;DHT22;1249;51.270;6.756;2023-05-19T03:47:15;17.60;86.20
2477;DHT22;1249;51.270;6.756;2023-05-19T03:49:41;17.60;86.40
2477;DHT22;1249;51.270;6.756;2023-05-19T03:52:06;17.60;86.40
2477;DHT22;1249;51.270;6.756;2023-05-19T03:54:32;17.50;86.60
2477;DHT22;1249;51.270;6.756;2023-05-19T03:56:58;17.50;86.90
2477;DHT22;1249;51.270;6.756;2023-05-19T03:59:23;17.50;87.00
2477;DHT22;1249;51.270;6.756;2023-05-19T04:01:49;17.50;87.20
2477;DHT22;1249;51.270;6.756;2023-05-19T04:04:15;17.50;87.30
2477;DHT22;1249;51.270;6.756;2023-05-19T04:06:41;17.50;87.60
2477;DHT22;1249;51.270;6.756;2023-05-19T04:09:13;17.50;87.60
2477;DHT22;1249;51.270;6.756;2023-05-19T04:11:41;17.50;87.70
2477;DHT22;1249;51.270;6.756;2023-05-19T04:14:07;17.50;87.90
2477;DHT22;1249;51.270;6.756;2023-05-19T04:16:33;17.50;88.00
2477;DHT22;1249;51.270;6.756;2023-05-19T04:18:59;17.50;88.20
2477;DHT22;1249;51.270;6.756;2023-05-19T04:21:24;17.50;88.40
2477;DHT22;1249;51.270;6.756;2023-05-19T04:23:50;17.50;88.50
2477;DHT22;1249;51.270;6.756;2023-05-19T04:26:16;17.50;88.60
2477;DHT22;1249;51.270;6.756;2023-05-19T04:28:42;17.50;88.60
2477;DHT22;1249;51.270;6.756;2023-05-19T04:31:11;17.50;88.90
2477;DHT22;1249;51.270;6.756;2023-05-19T04:33:38;17.50;89.20
2477;DHT22;1249;51.270;6.756;2023-05-19T04:36:05;17.50;89.20
2477;DHT22;1249;51.270;6.756;2023-05-19T04:38:36;17.40;89.40
2477;DHT22;1249;51.270;6.756;2023-05-19T04:41:07;17.50;89.50
2477;DHT22;1249;51.270;6.756;2023-05-19T04:43:35;17.50;89.50
2477;DHT22;1249;51.270;6.756;2023-05-19T04:46:02;17.50;89.70
2477;DHT22;1249;51.270;6.756;2023-05-19T04:48:30;17.50;89.80
2477;DHT22;1249;51.270;6.756;2023-05-19T04:50:56;17.50;89.80
2477;DHT22;1249;51.270;6.756;2023-05-19T04:53:22;17.50;90.00
2477;DHT22;1249;51.270;6.756;2023-05-19T04:55:50;17.50;90.00
2477;DHT22;1249;51.270;6.756;2023-05-19T04:58:15;17.50;90.00
2477;DHT22;1249;51.270;6.756;2023-05-19T05:00:41;17.50;90.10
2477;DHT22;1249;51.270;6.756;2023-05-19T05:03:07;17.50;90.10
2477;DHT22;1249;51.270;6.756;2023-05-19T05:05:33;17.50;90.10
2477;DHT22;1249;51.270;6.756;2023-05-19T05:07:59;17.50;90.20
2477;DHT22;1249;51.270;6.756;2023-05-19T05:10:24;17.50;90.20
2477;DHT22;1249;51.270;6.756;2023-05-19T05:12:50;17.50;90.40
2477;DHT22;1249;51.270;6.756;2023-05-19T05:15:16;17.60;90.40
2477;DHT22;1249;51.270;6.756;2023-05-19T05:17:42;17.50;90.30
2477;DHT22;1249;51.270;6.756;2023-05-19T05:20:08;17.60;90.40
2477;DHT22;1249;51.270;6.756;2023-05-19T05:22:36;17.60;90.40
2477;DHT22;1249;51.270;6.756;2023-05-19T05:25:03;17.60;90.30
2477;DHT22;1249;51.270;6.756;2023-05-19T05:27:29;17.60;90.60
2477;DHT22;1249;51.270;6.756;2023-05-19T05:29:55;17.60;90.10
2477;DHT22;1249;51.270;6.756;2023-05-19T05:32:20;17.60;89.80
2477;DHT22;1249;51.270;6.756;2023-05-19T05:34:46;17.60;89.50
2477;DHT22;1249;51.270;6.756;2023-05-19T05:37:11;17.70;89.50
2477;DHT22;1249;51.270;6.756;2023-05-19T05:39:37;17.60;88.90
2477;DHT22;1249;51.270;6.756;2023-05-19T05:42:03;17.60;89.70
2477;DHT22;1249;51.270;6.756;2023-05-19T05:44:28;17.70;90.10
2477;DHT22;1249;51.270;6.756;2023-05-19T05:46:54;17.70;90.30
2477;DHT22;1249;51.270;6.756;2023-05-19T05:49:20;17.90;90.70
2477;DHT22;1249;51.270;6.756;2023-05-19T05:51:46;18.00;90.70
2477;DHT22;1249;51.270;6.756;2023-05-19T05:54:12;18.10;91.30
2477;DHT22;1249;51.270;6.756;2023-05-19T05:56:38;18.40;90.80
2477;DHT22;1249;51.270;6.756;2023-05-19T05:59:05;18.70;88.60
2477;DHT22;1249;51.270;6.756;2023-05-19T06:01:31;18.80;85.50
2477;DHT22;1249;51.270;6.756;2023-05-19T06:03:57;19.00;82.20
2477;DHT22;1249;51.270;6.756;2023-05-19T06:06:22;19.20;82.10
2477;DHT22;1249;51.270;6.756;2023-05-19T06:08:48;19.40;81.30
2477;DHT22;1249;51.270;6.756;2023-05-19T06:11:13;19.70;79.30
2477;DHT22;1249;51.270;6.756;2023-05-19T06:13:39;19.80;78.40
2477;DHT22;1249;51.270;6.756;2023-05-19T06:16:07;20.10;78.30
2477;DHT22;1249;51.270;6.756;2023-05-19T06:18:33;20.30;77.70
2477;DHT22;1249;51.270;6.756;2023-05-19T06:20:58;20.50;77.60
2477;DHT22;1249;51.270;6.756;2023-05-19T06:23:24;20.70;77.50
2477;DHT22;1249;51.270;6.756;2023-05-19T06:25:51;21.00;77.40
2477;DHT22;1249;51.270;6.756;2023-05-19T06:28:17;21.30;77.10
2477;DHT22;1249;51.270;6.756;2023-05-19T06:30:42;21.50;76.50
2477;DHT22;1249;51.270;6.756;2023-05-19T06:33:08;21.80;76.10
2477;DHT22;1249;51.270;6.756;2023-05-19T06:35:33;22.00;75.60
2477;DHT22;1249;51.270;6.756;2023-05-19T06:37:59;22.20;75.10
2477;DHT22;1249;51.270;6.756;2023-05-19T06:40:24;22.40;74.60
2477;DHT22;1249;51.270;6.756;2023-05-19T06:42:50;22.50;74.10
2477;DHT22;1249;51.270;6.756;2023-05-19T06:45:16;22.50;74.10
2477;DHT22;1249;51.270;6.756;2023-05-19T06:47:46;22.50;73.80
2477;DHT22;1249;51.270;6.756;2023-05-19T06:50:11;22.50;73.60
2477;DHT22;1249;51.270;6.756;2023-05-19T06:52:37;22.80;73.80
2477;DHT22;1249;51.270;6.756;2023-05-19T06:55:02;23.00;73.10
2477;DHT22;1249;51.270;6.756;2023-05-19T06:57:28;23.10;72.30
2477;DHT22;1249;51.270;6.756;2023-05-19T06:59:54;23.30;72.00
2477;DHT22;1249;51.270;6.756;2023-05-19T07:02:19;23.40;71.40
2477;DHT22;1249;51.270;6.756;2023-05-19T07:04:45;23.70;71.30
2477;DHT22;1249;51.270;6.756;2023-05-19T07:07:11;23.80;70.10
2477;DHT22;1249;51.270;6.756;2023-05-19T07:09:37;24.10;69.90
2477;DHT22;1249;51.270;6.756;2023-05-19T07:12:03;24.30;69.80
2477;DHT22;1249;51.270;6.756;2023-05-19T07:14:28;24.50;69.50
2477;DHT22;1249;51.270;6.756;2023-05-19T07:16:54;24.70;69.20
2477;DHT22;1249;51.270;6.756;2023-05-19T07:19:19;24.80;69.10
2477;DHT22;1249;51.270;6.756;2023-05-19T07:21:45;25.00;70.20
2477;DHT22;1249;51.270;6.756;2023-05-19T07:24:11;25.10;69.60
2477;DHT22;1249;51.270;6.756;2023-05-19T07:26:37;25.40;68.50
2477;DHT22;1249;51.270;6.756;2023-05-19T07:29:02;25.70;67.80
2477;DHT22;1249;51.270;6.756;2023-05-19T07:31:28;25.90;67.00
2477;DHT22;1249;51.270;6.756;2023-05-19T07:33:53;26.00;66.40
2477;DHT22;1249;51.270;6.756;2023-05-19T07:36:19;26.20;66.00
2477;DHT22;1249;51.270;6.756;2023-05-19T07:38:45;26.20;65.60
2477;DHT22;1249;51.270;6.756;2023-05-19T07:41:11;26.30;65.90
2477;DHT22;1249;51.270;6.756;2023-05-19T07:43:37;26.20;65.50
2477;DHT22;1249;51.270;6.756;2023-05-19T07:46:03;26.10;64.70
2477;DHT22;1249;51.270;6.756;2023-05-19T07:48:28;26.20;64.10
2477;DHT22;1249;51.270;6.756;2023-05-19T07:50:54;26.30;62.80
2477;DHT22;1249;51.270;6.756;2023-05-19T07:53:20;26.50;61.80
2477;DHT22;1249;51.270;6.756;2023-05-19T07:55:47;26.60;60.80
2477;DHT22;1249;51.270;6.756;2023-05-19T07:58:13;26.70;59.90
2477;DHT22;1249;51.270;6.756;2023-05-19T08:00:38;26.90;59.70
2477;DHT22;1249;51.270;6.756;2023-05-19T08:03:07;27.00;58.40
2477;DHT22;1249;51.270;6.756;2023-05-19T08:05:33;27.10;57.80
2477;DHT22;1249;51.270;6.756;2023-05-19T08:07:59;27.20;57.40
2477;DHT22;1249;51.270;6.756;2023-05-19T08:10:24;27.40;57.00
2477;DHT22;1249;51.270;6.756;2023-05-19T08:12:50;27.50;57.90
2477;DHT22;1249;51.270;6.756;2023-05-19T08:15:16;27.70;58.00
2477;DHT22;1249;51.270;6.756;2023-05-19T08:17:41;27.80;57.70
2477;DHT22;1249;51.270;6.756;2023-05-19T08:20:07;28.00;57.00
2477;DHT22;1249;51.270;6.756;2023-05-19T08:22:35;28.30;55.90
2477;DHT22;1249;51.270;6.756;2023-05-19T08:25:00;28.40;55.30
2477;DHT22;1249;51.270;6.756;2023-05-19T08:27:26;28.60;54.60
2477;DHT22;1249;51.270;6.756;2023-05-19T08:29:52;28.80;54.00
2477;DHT22;1249;51.270;6.756;2023-05-19T08:32:19;28.80;53.50
2477;DHT22;1249;51.270;6.756;2023-05-19T08:34:45;29.00;53.30
2477;DHT22;1249;51.270;6.756;2023-05-19T08:37:10;29.20;53.00
2477;DHT22;1249;51.270;6.756;2023-05-19T08:39:36;29.30;52.40
2477;DHT22;1249;51.270;6.756;2023-05-19T08:42:01;29.40;52.20
2477;DHT22;1249;51.270;6.756;2023-05-19T08:44:27;29.60;51.90
2477;DHT22;1249;51.270;6.756;2023-05-19T08:46:54;29.70;51.50
2477;DHT22;1249;51.270;6.756;2023-05-19T08:49:26;29.90;51.10
2477;DHT22;1249;51.270;6.756;2023-05-19T08:52:30;30.00;50.80
2477;DHT22;1249;51.270;6.756;2023-05-19T08:55:24;30.20;50.30
2477;DHT22;1249;51.270;6.756;2023-05-19T08:57:52;30.40;49.70
2477;DHT22;1249;51.270;6.756;2023-05-19T09:00:18;30.50;49.30
2477;DHT22;1249;51.270;6.756;2023-05-19T09:02:48;30.70;49.00
2477;DHT22;1249;51.270;6.756;2023-05-19T09:05:16;30.90;48.90
2477;DHT22;1249;51.270;6.756;2023-05-19T09:07:42;31.00;48.20
2477;DHT22;1249;51.270;6.756;2023-05-19T09:10:08;31.10;47.80
2477;DHT22;1249;51.270;6.756;2023-05-19T09:12:39;31.30;47.50
2477;DHT22;1249;51.270;6.756;2023-05-19T09:15:05;31.50;47.00
2477;DHT22;1249;51.270;6.756;2023-05-19T09:17:32;31.80;46.70
2477;DHT22;1249;51.270;6.756;2023-05-19T09:20:03;32.00;46.00
2477;DHT22;1249;51.270;6.756;2023-05-19T09:22:42;32.20;45.80
2477;DHT22;1249;51.270;6.756;2023-05-19T09:25:26;32.40;45.40
2477;DHT22;1249;51.270;6.756;2023-05-19T09:27:53;32.70;45.30
2477;DHT22;1249;51.270;6.756;2023-05-19T09:30:19;32.90;45.20
2477;DHT22;1249;51.270;6.756;2023-05-19T09:32:45;33.10;45.10
2477;DHT22;1249;51.270;6.756;2023-05-19T09:35:12;33.20;45.00
2477;DHT22;1249;51.270;6.756;2023-05-19T09:37:39;33.30;44.40
2477;DHT22;1249;51.270;6.756;2023-05-19T09:40:07;33.40;44.10
2477;DHT22;1249;51.270;6.756;2023-05-19T09:42:36;33.50;43.90
2477;DHT22;1249;51.270;6.756;2023-05-19T09:45:03;33.70;43.60
2477;DHT22;1249;51.270;6.756;2023-05-19T09:47:36;33.90;42.90
2477;DHT22;1249;51.270;6.756;2023-05-19T09:50:06;34.00;42.00
2477;DHT22;1249;51.270;6.756;2023-05-19T09:52:42;34.20;41.70
2477;DHT22;1249;51.270;6.756;2023-05-19T09:55:09;34.30;40.90
2477;DHT22;1249;51.270;6.756;2023-05-19T09:57:36;34.40;40.60
2477;DHT22;1249;51.270;6.756;2023-05-19T10:00:09;34.60;40.00
2477;DHT22;1249;51.270;6.756;2023-05-19T10:02:43;34.80;39.90
2477;DHT22;1249;51.270;6.756;2023-05-19T10:05:13;35.00;39.80
2477;DHT22;1249;51.270;6.756;2023-05-19T10:07:42;35.20;40.10
2477;DHT22;1249;51.270;6.756;2023-05-19T10:10:11;35.40;39.80
2477;DHT22;1249;51.270;6.756;2023-05-19T10:12:38;35.70;39.40
2477;DHT22;1249;51.270;6.756;2023-05-19T10:15:10;35.90;39.80
2477;DHT22;1249;51.270;6.756;2023-05-19T10:17:40;36.00;39.50
2477;DHT22;1249;51.270;6.756;2023-05-19T10:22:33;36.30;39.50
2477;DHT22;1249;51.270;6.756;2023-05-19T10:24:59;36.50;38.60
2477;DHT22;1249;51.270;6.756;2023-05-19T10:27:25;36.90;38.20
2477;DHT22;1249;51.270;6.756;2023-05-19T10:29:54;37.10;38.50
2477;DHT22;1249;51.270;6.756;2023-05-19T10:32:23;37.20;38.50
2477;DHT22;1249;51.270;6.756;2023-05-19T10:40:23;37.20;37.70
2477;DHT22;1249;51.270;6.756;2023-05-19T10:45:44;38.00;37.10
2477;DHT22;1249;51.270;6.756;2023-05-19T10:48:15;38.00;36.80
2477;DHT22;1249;51.270;6.756;2023-05-19T10:50:44;38.20;37.00
2477;DHT22;1249;51.270;6.756;2023-05-19T10:53:17;38.50;36.70
2477;DHT22;1249;51.270;6.756;2023-05-19T10:55:45;38.80;36.20
2477;DHT22;1249;51.270;6.756;2023-05-19T10:58:12;39.10;35.70
2477;DHT22;1249;51.270;6.756;2023-05-19T11:00:38;39.30;35.40
2477;DHT22;1249;51.270;6.756;2023-05-19T11:03:12;39.40;35.10
2477;DHT22;1249;51.270;6.756;2023-05-19T11:05:38;39.60;34.80
2477;DHT22;1249;51.270;6.756;2023-05-19T11:08:05;39.80;34.80
2477;DHT22;1249;51.270;6.756;2023-05-19T11:10:33;40.00;34.60
2477;DHT22;1249;51.270;6.756;2023-05-19T11:12:59;40.20;34.70
2477;DHT22;1249;51.270;6.756;2023-05-19T11:15:25;40.30;33.90
2477;DHT22;1249;51.270;6.756;2023-05-19T11:17:54;40.60;33.70
2477;DHT22;1249;51.270;6.756;2023-05-19T11:20:25;40.80;33.60
2477;DHT22;1249;51.270;6.756;2023-05-19T11:23:04;41.00;33.50
2477;DHT22;1249;51.270;6.756;2023-05-19T11:25:50;41.20;34.00
2477;DHT22;1249;51.270;6.756;2023-05-19T11:28:22;41.30;33.90
2477;DHT22;1249;51.270;6.756;2023-05-19T11:30:56;41.60;33.70
2477;DHT22;1249;51.270;6.756;2023-05-19T11:33:24;41.70;33.60
2477;DHT22;1249;51.270;6.756;2023-05-19T11:35:52;41.70;33.10
2477;DHT22;1249;51.270;6.756;2023-05-19T11:38:21;41.90;33.10
2477;DHT22;1249;51.270;6.756;2023-05-19T11:40:48;42.10;33.40
2477;DHT22;1249;51.270;6.756;2023-05-19T11:43:16;42.30;33.40
2477;DHT22;1249;51.270;6.756;2023-05-19T11:45:42;42.40;33.50
2477;DHT22;1249;51.270;6.756;2023-05-19T11:48:11;42.60;33.10
2477;DHT22;1249;51.270;6.756;2023-05-19T11:50:40;42.60;32.80
2477;DHT22;1249;51.270;6.756;2023-05-19T11:53:05;42.70;32.30
2477;DHT22;1249;51.270;6.756;2023-05-19T11:55:31;42.90;33.00
2477;DHT22;1249;51.270;6.756;2023-05-19T11:58:01;43.10;32.30
2477;DHT22;1249;51.270;6.756;2023-05-19T12:00:28;43.20;32.00
2477;DHT22;1249;51.270;6.756;2023-05-19T12:02:55;43.40;31.90
2477;DHT22;1249;51.270;6.756;2023-05-19T12:05:25;43.60;32.30
2477;DHT22;1249;51.270;6.756;2023-05-19T12:07:51;43.60;32.10
2477;DHT22;1249;51.270;6.756;2023-05-19T12:10:22;43.60;31.60
2477;DHT22;1249;51.270;6.756;2023-05-19T12:12:48;43.40;31.20
2477;DHT22;1249;51.270;6.756;2023-05-19T12:15:20;43.00;30.40
2477;DHT22;1249;51.270;6.756;2023-05-19T12:17:56;42.70;31.60
2477;DHT22;1249;51.270;6.756;2023-05-19T12:20:22;42.90;31.50
2477;DHT22;1249;51.270;6.756;2023-05-19T12:22:49;43.10;31.50
2477;DHT22;1249;51.270;6.756;2023-05-19T12:25:15;43.40;31.20
2477;DHT22;1249;51.270;6.756;2023-05-19T12:27:42;43.60;31.50
2477;DHT22;1249;51.270;6.756;2023-05-19T12:30:08;43.80;31.40
2477;DHT22;1249;51.270;6.756;2023-05-19T12:32:35;44.00;31.30
2477;DHT22;1249;51.270;6.756;2023-05-19T12:35:04;44.10;31.50
2477;DHT22;1249;51.270;6.756;2023-05-19T12:37:31;44.30;31.70
2477;DHT22;1249;51.270;6.756;2023-05-19T12:39:58;44.40;31.70
2477;DHT22;1249;51.270;6.756;2023-05-19T12:42:26;44.60;31.50
2477;DHT22;1249;51.270;6.756;2023-05-19T12:44:56;44.70;31.10
2477;DHT22;1249;51.270;6.756;2023-05-19T12:47:22;44.70;30.90
2477;DHT22;1249;51.270;6.756;2023-05-19T12:52:19;44.90;30.60
2477;DHT22;1249;51.270;6.756;2023-05-19T12:54:48;45.00;30.40
2477;DHT22;1249;51.270;6.756;2023-05-19T12:57:15;45.00;30.00
2477;DHT22;1249;51.270;6.756;2023-05-19T12:59:41;44.70;30.10
2477;DHT22;1249;51.270;6.756;2023-05-19T13:02:07;44.80;30.40
2477;DHT22;1249;51.270;6.756;2023-05-19T13:04:33;44.90;30.50
2477;DHT22;1249;51.270;6.756;2023-05-19T13:06:58;45.00;30.30
2477;DHT22;1249;51.270;6.756;2023-05-19T13:09:24;45.10;30.40
2477;DHT22;1249;51.270;6.756;2023-05-19T13:11:50;45.40;30.40
2477;DHT22;1249;51.270;6.756;2023-05-19T13:14:17;45.40;30.50
2477;DHT22;1249;51.270;6.756;2023-05-19T13:16:46;45.40;30.60
2477;DHT22;1249;51.270;6.756;2023-05-19T13:19:17;44.90;29.70
2477;DHT22;1249;51.270;6.756;2023-05-19T13:21:44;44.70;30.10
2477;DHT22;1249;51.270;6.756;2023-05-19T13:24:12;44.20;29.30
2477;DHT22;1249;51.270;6.756;2023-05-19T13:26:39;43.70;29.50
2477;DHT22;1249;51.270;6.756;2023-05-19T13:29:05;43.50;30.00
2477;DHT22;1249;51.270;6.756;2023-05-19T13:31:31;43.70;30.20
2477;DHT22;1249;51.270;6.756;2023-05-19T13:33:56;43.50;29.60
2477;DHT22;1249;51.270;6.756;2023-05-19T13:36:22;43.30;30.00
2477;DHT22;1249;51.270;6.756;2023-05-19T13:38:47;43.60;30.40
2477;DHT22;1249;51.270;6.756;2023-05-19T13:41:13;43.80;30.60
2477;DHT22;1249;51.270;6.756;2023-05-19T13:43:38;43.80;30.00
2477;DHT22;1249;51.270;6.756;2023-05-19T13:46:04;43.50;29.50
2477;DHT22;1249;51.270;6.756;2023-05-19T13:48:30;43.10;29.20
2477;DHT22;1249;51.270;6.756;2023-05-19T13:50:55;42.80;29.80
2477;DHT22;1249;51.270;6.756;2023-05-19T13:53:21;42.80;29.40
2477;DHT22;1249;51.270;6.756;2023-05-19T13:55:47;42.80;29.40
2477;DHT22;1249;51.270;6.756;2023-05-19T13:58:12;43.00;29.20
2477;DHT22;1249;51.270;6.756;2023-05-19T14:00:40;42.40;29.20
2477;DHT22;1249;51.270;6.756;2023-05-19T14:03:05;41.60;29.60
2477;DHT22;1249;51.270;6.756;2023-05-19T14:05:31;40.80;30.10
2477;DHT22;1249;51.270;6.756;2023-05-19T14:07:57;40.10;31.50
2477;DHT22;1249;51.270;6.756;2023-05-19T14:10:24;40.30;32.10
2477;DHT22;1249;51.270;6.756;2023-05-19T14:12:50;40.70;32.10
2477;DHT22;1249;51.270;6.756;2023-05-19T14:15:17;41.10;31.90
2477;DHT22;1249;51.270;6.756;2023-05-19T14:17:43;41.40;31.30
2477;DHT22;1249;51.270;6.756;2023-05-19T14:20:09;41.60;31.00
2477;DHT22;1249;51.270;6.756;2023-05-19T14:22:34;41.60;30.60
2477;DHT22;1249;51.270;6.756;2023-05-19T14:25:00;41.60;30.50
2477;DHT22;1249;51.270;6.756;2023-05-19T14:27:26;41.70;30.80
2477;DHT22;1249;51.270;6.756;2023-05-19T14:29:51;42.10;30.90
2477;DHT22;1249;51.270;6.756;2023-05-19T14:32:17;42.30;30.80
2477;DHT22;1249;51.270;6.756;2023-05-19T14:34:43;42.50;31.10
2477;DHT22;1249;51.270;6.756;2023-05-19T14:37:08;42.70;31.30
2477;DHT22;1249;51.270;6.756;2023-05-19T14:39:34;42.70;31.30
2477;DHT22;1249;51.270;6.756;2023-05-19T14:41:59;42.80;31.40
2477;DHT22;1249;51.270;6.756;2023-05-19T14:44:30;42.80;31.60
2477;DHT22;1249;51.270;6.756;2023-05-19T14:46:57;42.90;31.80
2477;DHT22;1249;51.270;6.756;2023-05-19T14:49:23;42.90;31.80
2477;DHT22;1249;51.270;6.756;2023-05-19T14:51:48;42.90;31.90
2477;DHT22;1249;51.270;6.756;2023-05-19T14:54:14;42.90;32.10
2477;DHT22;1249;51.270;6.756;2023-05-19T14:56:39;42.90;32.20
2477;DHT22;1249;51.270;6.756;2023-05-19T14:59:05;42.80;32.30
2477;DHT22;1249;51.270;6.756;2023-05-19T15:01:31;42.80;32.60
2477;DHT22;1249;51.270;6.756;2023-05-19T15:03:56;42.70;32.30
2477;DHT22;1249;51.270;6.756;2023-05-19T15:06:22;42.60;32.40
2477;DHT22;1249;51.270;6.756;2023-05-19T15:08:47;42.60;32.80
2477;DHT22;1249;51.270;6.756;2023-05-19T15:11:13;42.40;32.80
2477;DHT22;1249;51.270;6.756;2023-05-19T15:13:38;42.40;32.80
2477;DHT22;1249;51.270;6.756;2023-05-19T15:16:04;42.30;32.90
2477;DHT22;1249;51.270;6.756;2023-05-19T15:18:35;42.10;33.00
2477;DHT22;1249;51.270;6.756;2023-05-19T15:21:01;42.00;33.20
2477;DHT22;1249;51.270;6.756;2023-05-19T15:23:26;41.90;33.20
2477;DHT22;1249;51.270;6.756;2023-05-19T15:25:52;41.70;33.50
2477;DHT22;1249;51.270;6.756;2023-05-19T15:28:18;41.50;33.50
2477;DHT22;1249;51.270;6.756;2023-05-19T15:30:44;41.40;33.50
2477;DHT22;1249;51.270;6.756;2023-05-19T15:33:10;41.30;33.70
2477;DHT22;1249;51.270;6.756;2023-05-19T15:35:36;41.10;34.00
2477;DHT22;1249;51.270;6.756;2023-05-19T15:38:02;41.00;34.10
2477;DHT22;1249;51.270;6.756;2023-05-19T15:40:31;40.80;34.40
2477;DHT22;1249;51.270;6.756;2023-05-19T15:42:57;40.50;34.60
2477;DHT22;1249;51.270;6.756;2023-05-19T15:45:22;40.30;34.70
2477;DHT22;1249;51.270;6.756;2023-05-19T15:47:48;40.20;35.00
2477;DHT22;1249;51.270;6.756;2023-05-19T15:50:13;40.00;35.10
2477;DHT22;1249;51.270;6.756;2023-05-19T15:52:39;39.90;35.20
2477;DHT22;1249;51.270;6.756;2023-05-19T15:55:05;39.70;35.50
2477;DHT22;1249;51.270;6.756;2023-05-19T15:57:31;39.60;35.90
2477;DHT22;1249;51.270;6.756;2023-05-19T15:59:56;39.50;36.00
2477;DHT22;1249;51.270;6.756;2023-05-19T16:02:22;39.20;36.00
2477;DHT22;1249;51.270;6.756;2023-05-19T16:04:47;39.10;36.20
2477;DHT22;1249;51.270;6.756;2023-05-19T16:07:13;38.90;36.40
2477;DHT22;1249;51.270;6.756;2023-05-19T16:09:38;38.70;36.50
2477;DHT22;1249;51.270;6.756;2023-05-19T16:12:04;38.60;37.10
2477;DHT22;1249;51.270;6.756;2023-05-19T16:14:30;38.40;37.00
2477;DHT22;1249;51.270;6.756;2023-05-19T16:17:01;38.20;37.10
2477;DHT22;1249;51.270;6.756;2023-05-19T16:19:27;38.00;37.30
2477;DHT22;1249;51.270;6.756;2023-05-19T16:21:52;37.90;37.70
2477;DHT22;1249;51.270;6.756;2023-05-19T16:24:18;37.70;38.10
2477;DHT22;1249;51.270;6.756;2023-05-19T16:26:43;37.50;39.30
2477;DHT22;1249;51.270;6.756;2023-05-19T16:29:09;37.30;39.10
2477;DHT22;1249;51.270;6.756;2023-05-19T16:31:34;37.10;38.50